sensor_id;sensor_type;location;lat;lon;timestamp;temperature;humidity
2639;DHT22;1329;51.384;7.122;2024-01-07T00:01:35;5.10;99.90
2639;DHT22;1329;51.384;7.122;2024-01-07T00:04:03;5.10;99.90
2639;DHT22;1329;51.384;7.122;2024-01-07T00:06:30;5.10;99.90
2639;DHT22;1329;51.384;7.122;2024-01-07T00:08:57;5.10;99.90
2639;DHT22;1329;51.384;7.122;2024-01-07T00:11:25;5.10;99.90
2639;DHT22;1329;51.384;7.122;2024-01-07T00:13:54;5.00;99.90
2639;DHT22;1329;51.384;7.122;2024-01-07T00:16:21;5.10;99.90
2639;DHT22;1329;51.384;7.122;2024-01-07T00:18:48;5.10;99.90
2639;DHT22;1329;51.384;7.122;2024-01-07T00:21:16;5.10;99.90
2639;DHT22;1329;51.384;7.122;2024-01-07T00:23:46;5.10;99.90
2639;DHT22;1329;51.384;7.122;2024-01-07T00:26:13;5.10;99.90
2639;DHT22;1329;51.384;7.122;2024-01-07T00:28:41;5.10;99.90
2639;DHT22;1329;51.384;7.122;2024-01-07T00:31:11;5.10;99.90
2639;DHT22;1329;51.384;7.122;2024-01-07T00:33:39;5.10;99.90
2639;DHT22;1329;51.384;7.122;2024-01-07T00:36:06;5.10;99.90
2639;DHT22;1329;51.384;7.122;2024-01-07T00:38:34;5.10;99.90
2639;DHT22;1329;51.384;7.122;2024-01-07T00:41:01;5.10;99.90
2639;DHT22;1329;51.384;7.122;2024-01-07T00:43:28;5.10;99.90
2639;DHT22;1329;51.384;7.122;2024-01-07T00:45:56;5.10;99.90
2639;DHT22;1329;51.384;7.122;2024-01-07T00:48:25;5.00;99.90
2639;DHT22;1329;51.384;7.122;2024-01-07T00:50:53;5.10;99.90
2639;DHT22;1329;51.384;7.122;2024-01-07T00:53:21;5.10;99.90
2639;DHT22;1329;51.384;7.122;2024-01-07T00:55:48;5.00;99.90
2639;DHT22;1329;51.384;7.122;2024-01-07T00:58:15;5.00;99.90
2639;DHT22;1329;51.384;7.122;2024-01-07T01:00:43;5.00;99.90
2639;DHT22;1329;51.384;7.122;2024-01-07T01:03:10;5.00;99.90
2639;DHT22;1329;51.384;7.122;2024-01-07T01:05:39;5.00;99.90
2639;DHT22;1329;51.384;7.122;2024-01-07T01:08:07;5.00;99.90
2639;DHT22;1329;51.384;7.122;2024-01-07T01:10:34;5.00;99.90
2639;DHT22;1329;51.384;7.122;2024-01-07T01:13:02;5.00;99.90
2639;DHT22;1329;51.384;7.122;2024-01-07T01:15:29;5.00;99.90
2639;DHT22;1329;51.384;7.122;2024-01-07T01:17:56;5.00;99.90
2639;DHT22;1329;51.384;7.122;2024-01-07T01:20:24;5.00;99.90
2639;DHT22;1329;51.384;7.122;2024-01-07T01:22:53;5.00;99.90
2639;DHT22;1329;51.384;7.122;2024-01-07T01:25:20;5.00;99.90
2639;DHT22;1329;51.384;7.122;2024-01-07T01:27:47;5.00;99.90
2639;DHT22;1329;51.384;7.122;2024-01-07T01:30:15;5.00;99.90
2639;DHT22;1329;51.384;7.122;2024-01-07T01:32:45;4.90;99.90
2639;DHT22;1329;51.384;7.122;2024-01-07T01:35:12;5.00;99.90
2639;DHT22;1329;51.384;7.122;2024-01-07T01:37:39;5.00;99.90
2639;DHT22;1329;51.384;7.122;2024-01-07T01:40:09;5.00;99.90
2639;DHT22;1329;51.384;7.122;2024-01-07T01:42:37;5.00;99.90
2639;DHT22;1329;51.384;7.122;2024-01-07T01:45:05;4.90;99.90
2639;DHT22;1329;51.384;7.122;2024-01-07T01:47:33;4.90;99.90
2639;DHT22;1329;51.384;7.122;2024-01-07T01:50:01;4.90;99.90
2639;DHT22;1329;51.384;7.122;2024-01-07T01:52:28;4.90;99.90
2639;DHT22;1329;51.384;7.122;2024-01-07T01:54:57;4.90;99.90
2639;DHT22;1329;51.384;7.122;2024-01-07T01:57:32;4.90;99.90
2639;DHT22;1329;51.384;7.122;2024-01-07T02:00:03;4.90;99.90
2639;DHT22;1329;51.384;7.122;2024-01-07T02:02:31;4.80;99.90
2639;DHT22;1329;51.384;7.122;2024-01-07T02:05:00;4.80;99.90
2639;DHT22;1329;51.384;7.122;2024-01-07T02:07:28;4.80;99.90
2639;DHT22;1329;51.384;7.122;2024-01-07T02:09:56;4.80;99.90
2639;DHT22;1329;51.384;7.122;2024-01-07T02:12:25;4.80;99.90
2639;DHT22;1329;51.384;7.122;2024-01-07T02:14:53;4.80;99.90
2639;DHT22;1329;51.384;7.122;2024-01-07T02:17:20;4.80;99.90
2639;DHT22;1329;51.384;7.122;2024-01-07T02:19:48;4.80;99.90
2639;DHT22;1329;51.384;7.122;2024-01-07T02:22:15;4.80;99.90
2639;DHT22;1329;51.384;7.122;2024-01-07T02:24:44;4.70;99.90
2639;DHT22;1329;51.384;7.122;2024-01-07T02:27:11;4.70;99.90
2639;DHT22;1329;51.384;7.122;2024-01-07T02:29:38;4.70;99.90
2639;DHT22;1329;51.384;7.122;2024-01-07T02:32:06;4.80;99.90
2639;DHT22;1329;51.384;7.122;2024-01-07T02:34:33;4.70;99.90
2639;DHT22;1329;51.384;7.122;2024-01-07T02:37:00;4.70;99.90
2639;DHT22;1329;51.384;7.122;2024-01-07T02:39:28;4.70;99.90
2639;DHT22;1329;51.384;7.122;2024-01-07T02:41:57;4.70;99.90
2639;DHT22;1329;51.384;7.122;2024-01-07T02:44:24;4.80;99.90
2639;DHT22;1329;51.384;7.122;2024-01-07T02:46:51;4.70;99.90
2639;DHT22;1329;51.384;7.122;2024-01-07T02:49:19;4.70;99.90
2639;DHT22;1329;51.384;7.122;2024-01-07T02:51:46;4.70;99.90
2639;DHT22;1329;51.384;7.122;2024-01-07T02:54:15;4.80;99.90
2639;DHT22;1329;51.384;7.122;2024-01-07T02:56:42;4.70;99.90
2639;DHT22;1329;51.384;7.122;2024-01-07T02:59:10;4.80;99.90
2639;DHT22;1329;51.384;7.122;2024-01-07T03:01:37;4.80;99.90
2639;DHT22;1329;51.384;7.122;2024-01-07T03:04:06;4.70;99.90
2639;DHT22;1329;51.384;7.122;2024-01-07T03:06:34;4.70;99.90
2639;DHT22;1329;51.384;7.122;2024-01-07T03:09:01;4.70;99.90
2639;DHT22;1329;51.384;7.122;2024-01-07T03:11:28;4.70;99.90
2639;DHT22;1329;51.384;7.122;2024-01-07T03:13:55;4.70;99.90
2639;DHT22;1329;51.384;7.122;2024-01-07T03:16:25;4.60;99.90
2639;DHT22;1329;51.384;7.122;2024-01-07T03:18:52;4.60;99.90
2639;DHT22;1329;51.384;7.122;2024-01-07T03:21:20;4.60;99.90
2639;DHT22;1329;51.384;7.122;2024-01-07T03:23:48;4.60;99.90
2639;DHT22;1329;51.384;7.122;2024-01-07T03:26:17;4.60;99.90
2639;DHT22;1329;51.384;7.122;2024-01-07T03:28:45;4.60;99.90
2639;DHT22;1329;51.384;7.122;2024-01-07T03:31:13;4.50;99.90
2639;DHT22;1329;51.384;7.122;2024-01-07T03:33:42;4.50;99.90
2639;DHT22;1329;51.384;7.122;2024-01-07T03:36:10;4.50;99.90
2639;DHT22;1329;51.384;7.122;2024-01-07T03:38:39;4.50;99.90
2639;DHT22;1329;51.384;7.122;2024-01-07T03:41:06;4.50;99.90
2639;DHT22;1329;51.384;7.122;2024-01-07T03:43:33;4.40;99.90
2639;DHT22;1329;51.384;7.122;2024-01-07T03:46:00;4.50;99.90
2639;DHT22;1329;51.384;7.122;2024-01-07T03:48:27;4.40;99.90
2639;DHT22;1329;51.384;7.122;2024-01-07T03:50:56;4.40;99.90
2639;DHT22;1329;51.384;7.122;2024-01-07T03:53:22;4.40;99.90
2639;DHT22;1329;51.384;7.122;2024-01-07T03:55:50;4.40;99.90
2639;DHT22;1329;51.384;7.122;2024-01-07T03:58:16;4.40;99.90
2639;DHT22;1329;51.384;7.122;2024-01-07T04:00:43;4.30;99.90
2639;DHT22;1329;51.384;7.122;2024-01-07T04:03:10;4.30;99.90
2639;DHT22;1329;51.384;7.122;2024-01-07T04:05:37;4.40;99.90
2639;DHT22;1329;51.384;7.122;2024-01-07T04:08:09;4.30;99.90
2639;DHT22;1329;51.384;7.122;2024-01-07T04:10:36;4.30;99.90
2639;DHT22;1329;51.384;7.122;2024-01-07T04:13:03;4.30;99.90
2639;DHT22;1329;51.384;7.122;2024-01-07T04:15:30;4.30;99.90
2639;DHT22;1329;51.384;7.122;2024-01-07T04:18:00;4.30;99.90
2639;DHT22;1329;51.384;7.122;2024-01-07T04:20:28;4.30;99.90
2639;DHT22;1329;51.384;7.122;2024-01-07T04:22:55;4.30;99.90
2639;DHT22;1329;51.384;7.122;2024-01-07T04:25:24;4.30;99.90
2639;DHT22;1329;51.384;7.122;2024-01-07T04:27:51;4.30;99.90
2639;DHT22;1329;51.384;7.122;2024-01-07T04:30:18;4.20;99.90
2639;DHT22;1329;51.384;7.122;2024-01-07T04:32:45;4.20;99.90
2639;DHT22;1329;51.384;7.122;2024-01-07T04:35:12;4.20;99.90
2639;DHT22;1329;51.384;7.122;2024-01-07T04:37:38;4.20;99.90
2639;DHT22;1329;51.384;7.122;2024-01-07T04:40:06;4.20;99.90
2639;DHT22;1329;51.384;7.122;2024-01-07T04:42:35;4.20;99.90
2639;DHT22;1329;51.384;7.122;2024-01-07T04:45:02;4.20;99.90
2639;DHT22;1329;51.384;7.122;2024-01-07T04:47:30;4.20;99.90
2639;DHT22;1329;51.384;7.122;2024-01-07T04:49:59;4.20;99.90
2639;DHT22;1329;51.384;7.122;2024-01-07T04:52:26;4.20;99.90
2639;DHT22;1329;51.384;7.122;2024-01-07T04:54:53;4.20;99.90
2639;DHT22;1329;51.384;7.122;2024-01-07T04:57:21;4.10;99.90
2639;DHT22;1329;51.384;7.122;2024-01-07T04:59:50;4.20;99.90
2639;DHT22;1329;51.384;7.122;2024-01-07T05:02:18;4.20;99.90
2639;DHT22;1329;51.384;7.122;2024-01-07T05:04:45;4.10;99.90
2639;DHT22;1329;51.384;7.122;2024-01-07T05:07:13;4.10;99.90
2639;DHT22;1329;51.384;7.122;2024-01-07T05:09:39;4.10;99.90
2639;DHT22;1329;51.384;7.122;2024-01-07T05:12:06;4.10;99.90
2639;DHT22;1329;51.384;7.122;2024-01-07T05:14:33;4.10;99.90
2639;DHT22;1329;51.384;7.122;2024-01-07T05:17:02;4.10;99.90
2639;DHT22;1329;51.384;7.122;2024-01-07T05:19:29;4.10;99.90
2639;DHT22;1329;51.384;7.122;2024-01-07T05:21:56;4.00;99.90
2639;DHT22;1329;51.384;7.122;2024-01-07T05:24:24;4.00;99.90
2639;DHT22;1329;51.384;7.122;2024-01-07T05:26:51;4.00;99.90
2639;DHT22;1329;51.384;7.122;2024-01-07T05:29:19;4.00;99.90
2639;DHT22;1329;51.384;7.122;2024-01-07T05:31:46;3.90;99.90
2639;DHT22;1329;51.384;7.122;2024-01-07T05:34:14;3.90;99.90
2639;DHT22;1329;51.384;7.122;2024-01-07T05:36:41;3.90;99.90
2639;DHT22;1329;51.384;7.122;2024-01-07T05:39:08;3.90;99.90
2639;DHT22;1329;51.384;7.122;2024-01-07T05:41:38;3.80;99.90
2639;DHT22;1329;51.384;7.122;2024-01-07T05:44:06;3.80;99.90
2639;DHT22;1329;51.384;7.122;2024-01-07T05:46:33;3.80;99.90
2639;DHT22;1329;51.384;7.122;2024-01-07T05:49:07;3.80;99.90
2639;DHT22;1329;51.384;7.122;2024-01-07T05:51:40;3.80;99.90
2639;DHT22;1329;51.384;7.122;2024-01-07T05:54:07;3.80;99.90
2639;DHT22;1329;51.384;7.122;2024-01-07T05:56:38;3.70;99.90
2639;DHT22;1329;51.384;7.122;2024-01-07T05:59:05;3.70;99.90
2639;DHT22;1329;51.384;7.122;2024-01-07T06:01:32;3.70;99.90
2639;DHT22;1329;51.384;7.122;2024-01-07T06:04:00;3.70;99.90
2639;DHT22;1329;51.384;7.122;2024-01-07T06:06:30;3.80;99.90
2639;DHT22;1329;51.384;7.122;2024-01-07T06:08:58;3.80;99.90
2639;DHT22;1329;51.384;7.122;2024-01-07T06:11:25;3.80;99.90
2639;DHT22;1329;51.384;7.122;2024-01-07T06:13:52;3.80;99.90
2639;DHT22;1329;51.384;7.122;2024-01-07T06:16:19;3.80;99.90
2639;DHT22;1329;51.384;7.122;2024-01-07T06:18:46;3.80;99.90
2639;DHT22;1329;51.384;7.122;2024-01-07T06:21:13;3.80;99.90
2639;DHT22;1329;51.384;7.122;2024-01-07T06:23:40;3.80;99.90
2639;DHT22;1329;51.384;7.122;2024-01-07T06:26:08;3.70;99.90
2639;DHT22;1329;51.384;7.122;2024-01-07T06:28:35;3.80;99.90
2639;DHT22;1329;51.384;7.122;2024-01-07T06:31:04;3.70;99.90
2639;DHT22;1329;51.384;7.122;2024-01-07T06:33:31;3.80;99.90
2639;DHT22;1329;51.384;7.122;2024-01-07T06:35:58;3.80;99.90
2639;DHT22;1329;51.384;7.122;2024-01-07T06:38:26;3.80;99.90
2639;DHT22;1329;51.384;7.122;2024-01-07T06:40:53;3.80;99.90
2639;DHT22;1329;51.384;7.122;2024-01-07T06:43:21;3.70;99.90
2639;DHT22;1329;51.384;7.122;2024-01-07T06:45:48;3.80;99.90
2639;DHT22;1329;51.384;7.122;2024-01-07T06:48:15;3.80;99.90
2639;DHT22;1329;51.384;7.122;2024-01-07T06:50:42;3.80;99.90
2639;DHT22;1329;51.384;7.122;2024-01-07T06:53:09;3.80;99.90
2639;DHT22;1329;51.384;7.122;2024-01-07T06:55:36;3.80;99.90
2639;DHT22;1329;51.384;7.122;2024-01-07T06:58:03;3.70;99.90
2639;DHT22;1329;51.384;7.122;2024-01-07T07:00:32;3.70;99.90
2639;DHT22;1329;51.384;7.122;2024-01-07T07:02:59;3.70;99.90
2639;DHT22;1329;51.384;7.122;2024-01-07T07:05:26;3.70;99.90
2639;DHT22;1329;51.384;7.122;2024-01-07T07:07:53;3.70;99.90
2639;DHT22;1329;51.384;7.122;2024-01-07T07:10:20;3.80;99.90
2639;DHT22;1329;51.384;7.122;2024-01-07T07:12:46;3.70;99.90
2639;DHT22;1329;51.384;7.122;2024-01-07T07:15:13;3.70;99.90
2639;DHT22;1329;51.384;7.122;2024-01-07T07:17:42;3.70;99.90
2639;DHT22;1329;51.384;7.122;2024-01-07T07:20:11;3.70;99.90
2639;DHT22;1329;51.384;7.122;2024-01-07T07:22:38;3.70;99.90
2639;DHT22;1329;51.384;7.122;2024-01-07T07:25:06;3.60;99.90
2639;DHT22;1329;51.384;7.122;2024-01-07T07:27:33;3.60;99.90
2639;DHT22;1329;51.384;7.122;2024-01-07T07:30:00;3.60;99.90
2639;DHT22;1329;51.384;7.122;2024-01-07T07:32:30;3.60;99.90
2639;DHT22;1329;51.384;7.122;2024-01-07T07:35:04;3.60;99.90
2639;DHT22;1329;51.384;7.122;2024-01-07T07:37:35;3.50;99.90
2639;DHT22;1329;51.384;7.122;2024-01-07T07:40:04;3.50;99.90
2639;DHT22;1329;51.384;7.122;2024-01-07T07:42:37;3.50;99.90
2639;DHT22;1329;51.384;7.122;2024-01-07T07:45:10;3.50;99.90
2639;DHT22;1329;51.384;7.122;2024-01-07T07:47:41;3.50;99.90
2639;DHT22;1329;51.384;7.122;2024-01-07T07:50:11;3.50;99.90
2639;DHT22;1329;51.384;7.122;2024-01-07T07:52:38;3.50;99.90
2639;DHT22;1329;51.384;7.122;2024-01-07T07:55:06;3.50;99.90
2639;DHT22;1329;51.384;7.122;2024-01-07T08:00:17;3.50;99.90
2639;DHT22;1329;51.384;7.122;2024-01-07T08:02:47;3.50;99.90
2639;DHT22;1329;51.384;7.122;2024-01-07T08:05:15;3.50;99.90
2639;DHT22;1329;51.384;7.122;2024-01-07T08:07:43;3.50;99.90
2639;DHT22;1329;51.384;7.122;2024-01-07T08:10:10;3.50;99.90
2639;DHT22;1329;51.384;7.122;2024-01-07T08:12:40;3.50;99.90
2639;DHT22;1329;51.384;7.122;2024-01-07T08:15:08;3.50;99.90
2639;DHT22;1329;51.384;7.122;2024-01-07T08:17:35;3.50;99.90
2639;DHT22;1329;51.384;7.122;2024-01-07T08:20:02;3.40;99.90
2639;DHT22;1329;51.384;7.122;2024-01-07T08:22:31;3.40;99.90
2639;DHT22;1329;51.384;7.122;2024-01-07T08:24:58;3.40;99.90
2639;DHT22;1329;51.384;7.122;2024-01-07T08:27:25;3.30;99.90
2639;DHT22;1329;51.384;7.122;2024-01-07T08:29:52;3.40;99.90
2639;DHT22;1329;51.384;7.122;2024-01-07T08:32:19;3.30;99.90
2639;DHT22;1329;51.384;7.122;2024-01-07T08:34:48;3.30;99.90
2639;DHT22;1329;51.384;7.122;2024-01-07T08:37:15;3.30;99.90
2639;DHT22;1329;51.384;7.122;2024-01-07T08:39:43;3.30;99.90
2639;DHT22;1329;51.384;7.122;2024-01-07T08:42:10;3.30;99.90
2639;DHT22;1329;51.384;7.122;2024-01-07T08:44:37;3.30;99.90
2639;DHT22;1329;51.384;7.122;2024-01-07T08:47:04;3.30;99.90
2639;DHT22;1329;51.384;7.122;2024-01-07T08:49:32;3.30;99.90
2639;DHT22;1329;51.384;7.122;2024-01-07T08:52:00;3.20;99.90
2639;DHT22;1329;51.384;7.122;2024-01-07T08:54:26;3.20;99.90
2639;DHT22;1329;51.384;7.122;2024-01-07T08:56:55;3.20;99.90
2639;DHT22;1329;51.384;7.122;2024-01-07T08:59:22;3.20;99.90
2639;DHT22;1329;51.384;7.122;2024-01-07T09:01:49;3.20;99.90
2639;DHT22;1329;51.384;7.122;2024-01-07T09:04:16;3.20;99.90
2639;DHT22;1329;51.384;7.122;2024-01-07T09:06:43;3.20;99.90
2639;DHT22;1329;51.384;7.122;2024-01-07T09:09:10;3.20;99.90
2639;DHT22;1329;51.384;7.122;2024-01-07T09:11:37;3.20;99.90
2639;DHT22;1329;51.384;7.122;2024-01-07T09:14:05;3.20;99.90
2639;DHT22;1329;51.384;7.122;2024-01-07T09:16:32;3.20;99.90
2639;DHT22;1329;51.384;7.122;2024-01-07T09:18:59;3.20;99.90
2639;DHT22;1329;51.384;7.122;2024-01-07T09:21:26;3.20;99.90
2639;DHT22;1329;51.384;7.122;2024-01-07T09:23:53;3.20;99.90
2639;DHT22;1329;51.384;7.122;2024-01-07T09:26:20;3.20;99.90
2639;DHT22;1329;51.384;7.122;2024-01-07T09:28:47;3.20;99.90
2639;DHT22;1329;51.384;7.122;2024-01-07T09:31:15;3.20;99.90
2639;DHT22;1329;51.384;7.122;2024-01-07T09:33:42;3.20;99.90
2639;DHT22;1329;51.384;7.122;2024-01-07T09:36:09;3.20;99.90
2639;DHT22;1329;51.384;7.122;2024-01-07T09:38:39;3.20;99.90
2639;DHT22;1329;51.384;7.122;2024-01-07T09:41:07;3.20;99.90
2639;DHT22;1329;51.384;7.122;2024-01-07T09:43:36;3.20;99.90
2639;DHT22;1329;51.384;7.122;2024-01-07T09:46:03;3.20;99.90
2639;DHT22;1329;51.384;7.122;2024-01-07T09:48:32;3.20;99.90
2639;DHT22;1329;51.384;7.122;2024-01-07T09:51:00;3.20;99.90
2639;DHT22;1329;51.384;7.122;2024-01-07T09:53:30;3.20;99.90
2639;DHT22;1329;51.384;7.122;2024-01-07T09:56:06;3.20;99.90
2639;DHT22;1329;51.384;7.122;2024-01-07T09:58:38;3.20;99.90
2639;DHT22;1329;51.384;7.122;2024-01-07T10:01:05;3.20;99.90
2639;DHT22;1329;51.384;7.122;2024-01-07T10:03:35;3.20;99.90
2639;DHT22;1329;51.384;7.122;2024-01-07T10:06:02;3.20;99.90
2639;DHT22;1329;51.384;7.122;2024-01-07T10:08:29;3.20;99.90
2639;DHT22;1329;51.384;7.122;2024-01-07T10:10:56;3.20;99.90
2639;DHT22;1329;51.384;7.122;2024-01-07T10:13:24;3.20;99.90
2639;DHT22;1329;51.384;7.122;2024-01-07T10:15:51;3.20;99.90
2639;DHT22;1329;51.384;7.122;2024-01-07T10:18:18;3.20;99.90
2639;DHT22;1329;51.384;7.122;2024-01-07T10:20:47;3.20;99.90
2639;DHT22;1329;51.384;7.122;2024-01-07T10:23:18;3.30;99.90
2639;DHT22;1329;51.384;7.122;2024-01-07T10:25:45;3.30;99.90
2639;DHT22;1329;51.384;7.122;2024-01-07T10:28:12;3.30;99.90
2639;DHT22;1329;51.384;7.122;2024-01-07T10:30:40;3.30;99.90
2639;DHT22;1329;51.384;7.122;2024-01-07T10:33:07;3.30;99.90
2639;DHT22;1329;51.384;7.122;2024-01-07T10:35:36;3.20;99.90
2639;DHT22;1329;51.384;7.122;2024-01-07T10:38:05;3.20;99.90
2639;DHT22;1329;51.384;7.122;2024-01-07T10:40:33;3.20;99.90
2639;DHT22;1329;51.384;7.122;2024-01-07T10:43:00;3.20;99.90
2639;DHT22;1329;51.384;7.122;2024-01-07T10:45:27;3.20;99.90
2639;DHT22;1329;51.384;7.122;2024-01-07T10:47:55;3.20;99.90
2639;DHT22;1329;51.384;7.122;2024-01-07T10:50:26;3.20;99.90
2639;DHT22;1329;51.384;7.122;2024-01-07T10:53:02;3.20;99.90
2639;DHT22;1329;51.384;7.122;2024-01-07T10:55:34;3.20;99.90
2639;DHT22;1329;51.384;7.122;2024-01-07T10:58:03;3.10;99.90
2639;DHT22;1329;51.384;7.122;2024-01-07T11:00:31;3.10;99.90
2639;DHT22;1329;51.384;7.122;2024-01-07T11:03:06;3.10;99.90
2639;DHT22;1329;51.384;7.122;2024-01-07T11:05:40;3.10;99.90
2639;DHT22;1329;51.384;7.122;2024-01-07T11:08:18;3.10;99.90
2639;DHT22;1329;51.384;7.122;2024-01-07T11:10:53;3.10;99.90
2639;DHT22;1329;51.384;7.122;2024-01-07T11:13:43;3.10;99.90
2639;DHT22;1329;51.384;7.122;2024-01-07T11:16:42;3.20;99.90
2639;DHT22;1329;51.384;7.122;2024-01-07T11:19:13;3.20;99.90
2639;DHT22;1329;51.384;7.122;2024-01-07T11:21:41;3.20;99.90
2639;DHT22;1329;51.384;7.122;2024-01-07T11:24:09;3.20;99.90
2639;DHT22;1329;51.384;7.122;2024-01-07T11:26:36;3.30;99.90
2639;DHT22;1329;51.384;7.122;2024-01-07T11:29:04;3.20;99.90
2639;DHT22;1329;51.384;7.122;2024-01-07T11:31:44;3.20;99.90
2639;DHT22;1329;51.384;7.122;2024-01-07T11:34:38;3.20;99.90
2639;DHT22;1329;51.384;7.122;2024-01-07T11:37:09;3.20;99.90
2639;DHT22;1329;51.384;7.122;2024-01-07T11:39:41;3.20;99.90
2639;DHT22;1329;51.384;7.122;2024-01-07T11:42:08;3.20;99.90
2639;DHT22;1329;51.384;7.122;2024-01-07T11:44:36;3.30;99.90
2639;DHT22;1329;51.384;7.122;2024-01-07T11:47:03;3.20;99.90
2639;DHT22;1329;51.384;7.122;2024-01-07T11:49:32;3.30;99.90
2639;DHT22;1329;51.384;7.122;2024-01-07T11:51:59;3.30;99.90
2639;DHT22;1329;51.384;7.122;2024-01-07T11:54:27;3.30;99.90
2639;DHT22;1329;51.384;7.122;2024-01-07T11:56:55;3.30;99.90
2639;DHT22;1329;51.384;7.122;2024-01-07T11:59:23;3.30;99.90
2639;DHT22;1329;51.384;7.122;2024-01-07T12:01:50;3.30;99.90
2639;DHT22;1329;51.384;7.122;2024-01-07T12:04:18;3.30;99.90
2639;DHT22;1329;51.384;7.122;2024-01-07T12:06:45;3.20;99.90
2639;DHT22;1329;51.384;7.122;2024-01-07T12:09:12;3.20;99.90
2639;DHT22;1329;51.384;7.122;2024-01-07T12:11:40;3.20;99.90
2639;DHT22;1329;51.384;7.122;2024-01-07T12:14:09;3.10;99.90
2639;DHT22;1329;51.384;7.122;2024-01-07T12:16:36;3.10;99.90
2639;DHT22;1329;51.384;7.122;2024-01-07T12:19:03;3.10;99.90
2639;DHT22;1329;51.384;7.122;2024-01-07T12:21:30;3.10;99.90
2639;DHT22;1329;51.384;7.122;2024-01-07T12:23:57;3.10;99.90
2639;DHT22;1329;51.384;7.122;2024-01-07T12:26:26;3.00;99.90
2639;DHT22;1329;51.384;7.122;2024-01-07T12:28:54;3.00;99.90
2639;DHT22;1329;51.384;7.122;2024-01-07T12:31:24;3.00;99.90
2639;DHT22;1329;51.384;7.122;2024-01-07T12:33:51;2.90;99.90
2639;DHT22;1329;51.384;7.122;2024-01-07T12:36:26;2.90;99.90
2639;DHT22;1329;51.384;7.122;2024-01-07T12:39:00;2.90;99.90
2639;DHT22;1329;51.384;7.122;2024-01-07T12:41:29;2.80;99.90
2639;DHT22;1329;51.384;7.122;2024-01-07T12:43:56;2.80;99.90
2639;DHT22;1329;51.384;7.122;2024-01-07T12:46:29;2.80;99.90
2639;DHT22;1329;51.384;7.122;2024-01-07T12:49:00;2.80;99.90
2639;DHT22;1329;51.384;7.122;2024-01-07T12:51:30;2.80;99.90
2639;DHT22;1329;51.384;7.122;2024-01-07T12:53:57;2.80;99.90
2639;DHT22;1329;51.384;7.122;2024-01-07T12:56:28;2.80;99.90
2639;DHT22;1329;51.384;7.122;2024-01-07T12:58:56;2.70;99.90
2639;DHT22;1329;51.384;7.122;2024-01-07T13:01:23;2.70;99.90
2639;DHT22;1329;51.384;7.122;2024-01-07T13:03:51;2.70;99.90
2639;DHT22;1329;51.384;7.122;2024-01-07T13:06:18;2.60;99.90
2639;DHT22;1329;51.384;7.122;2024-01-07T13:08:45;2.60;99.90
2639;DHT22;1329;51.384;7.122;2024-01-07T13:11:12;2.60;99.90
2639;DHT22;1329;51.384;7.122;2024-01-07T13:13:42;2.60;99.90
2639;DHT22;1329;51.384;7.122;2024-01-07T13:16:09;2.60;99.90
2639;DHT22;1329;51.384;7.122;2024-01-07T13:18:36;2.60;99.90
2639;DHT22;1329;51.384;7.122;2024-01-07T13:21:05;2.60;99.90
2639;DHT22;1329;51.384;7.122;2024-01-07T13:23:32;2.60;99.90
2639;DHT22;1329;51.384;7.122;2024-01-07T13:26:00;2.60;99.90
2639;DHT22;1329;51.384;7.122;2024-01-07T13:28:30;2.60;99.90
2639;DHT22;1329;51.384;7.122;2024-01-07T13:30:57;2.60;99.90
2639;DHT22;1329;51.384;7.122;2024-01-07T13:33:28;2.60;99.90
2639;DHT22;1329;51.384;7.122;2024-01-07T13:35:55;2.70;99.90
2639;DHT22;1329;51.384;7.122;2024-01-07T13:38:23;2.70;99.90
2639;DHT22;1329;51.384;7.122;2024-01-07T13:40:50;2.70;99.90
2639;DHT22;1329;51.384;7.122;2024-01-07T13:43:17;2.70;99.90
2639;DHT22;1329;51.384;7.122;2024-01-07T13:45:44;2.70;99.90
2639;DHT22;1329;51.384;7.122;2024-01-07T13:48:11;2.70;99.90
2639;DHT22;1329;51.384;7.122;2024-01-07T13:50:37;2.70;99.90
2639;DHT22;1329;51.384;7.122;2024-01-07T13:53:04;2.60;99.90
2639;DHT22;1329;51.384;7.122;2024-01-07T13:55:32;2.60;99.90
2639;DHT22;1329;51.384;7.122;2024-01-07T13:57:59;2.60;99.90
2639;DHT22;1329;51.384;7.122;2024-01-07T14:00:26;2.60;99.90
2639;DHT22;1329;51.384;7.122;2024-01-07T14:02:53;2.60;99.90
2639;DHT22;1329;51.384;7.122;2024-01-07T14:05:20;2.60;99.90
2639;DHT22;1329;51.384;7.122;2024-01-07T14:07:47;2.60;99.90
2639;DHT22;1329;51.384;7.122;2024-01-07T14:10:14;2.70;99.90
2639;DHT22;1329;51.384;7.122;2024-01-07T14:12:53;2.60;99.90
2639;DHT22;1329;51.384;7.122;2024-01-07T14:15:22;2.60;99.90
2639;DHT22;1329;51.384;7.122;2024-01-07T14:17:54;2.60;99.90
2639;DHT22;1329;51.384;7.122;2024-01-07T14:20:41;2.60;99.90
2639;DHT22;1329;51.384;7.122;2024-01-07T14:23:08;2.70;99.90
2639;DHT22;1329;51.384;7.122;2024-01-07T14:25:35;2.70;99.90
2639;DHT22;1329;51.384;7.122;2024-01-07T14:28:04;2.60;99.90
2639;DHT22;1329;51.384;7.122;2024-01-07T14:30:31;2.70;99.90
2639;DHT22;1329;51.384;7.122;2024-01-07T14:32:58;2.70;99.90
2639;DHT22;1329;51.384;7.122;2024-01-07T14:35:25;2.60;99.90
2639;DHT22;1329;51.384;7.122;2024-01-07T14:37:54;2.60;99.90
2639;DHT22;1329;51.384;7.122;2024-01-07T14:40:22;2.60;99.90
2639;DHT22;1329;51.384;7.122;2024-01-07T14:42:49;2.60;99.90
2639;DHT22;1329;51.384;7.122;2024-01-07T14:45:20;2.60;99.90
2639;DHT22;1329;51.384;7.122;2024-01-07T14:47:46;2.70;99.90
2639;DHT22;1329;51.384;7.122;2024-01-07T14:50:13;2.70;99.90
2639;DHT22;1329;51.384;7.122;2024-01-07T14:52:40;2.70;99.90
2639;DHT22;1329;51.384;7.122;2024-01-07T14:55:08;2.70;99.90
2639;DHT22;1329;51.384;7.122;2024-01-07T14:57:35;2.70;99.90
2639;DHT22;1329;51.384;7.122;2024-01-07T15:00:02;2.70;99.90
2639;DHT22;1329;51.384;7.122;2024-01-07T15:02:32;2.70;99.90
2639;DHT22;1329;51.384;7.122;2024-01-07T15:04:59;2.70;99.90
2639;DHT22;1329;51.384;7.122;2024-01-07T15:07:26;2.70;99.90
2639;DHT22;1329;51.384;7.122;2024-01-07T15:09:53;2.70;99.90
2639;DHT22;1329;51.384;7.122;2024-01-07T15:12:20;2.70;99.90
2639;DHT22;1329;51.384;7.122;2024-01-07T15:14:48;2.70;99.90
2639;DHT22;1329;51.384;7.122;2024-01-07T15:17:15;2.70;99.90
2639;DHT22;1329;51.384;7.122;2024-01-07T15:19:45;2.70;99.90
2639;DHT22;1329;51.384;7.122;2024-01-07T15:22:12;2.70;99.90
2639;DHT22;1329;51.384;7.122;2024-01-07T15:24:39;2.60;99.90
2639;DHT22;1329;51.384;7.122;2024-01-07T15:27:06;2.60;99.90
2639;DHT22;1329;51.384;7.122;2024-01-07T15:29:33;2.60;99.90
2639;DHT22;1329;51.384;7.122;2024-01-07T15:32:00;2.60;99.90
2639;DHT22;1329;51.384;7.122;2024-01-07T15:34:27;2.60;99.90
2639;DHT22;1329;51.384;7.122;2024-01-07T15:36:55;2.50;99.90
2639;DHT22;1329;51.384;7.122;2024-01-07T15:39:22;2.60;99.90
2639;DHT22;1329;51.384;7.122;2024-01-07T15:41:49;2.50;99.90
2639;DHT22;1329;51.384;7.122;2024-01-07T15:44:16;2.50;99.90
2639;DHT22;1329;51.384;7.122;2024-01-07T15:46:42;2.50;99.90
2639;DHT22;1329;51.384;7.122;2024-01-07T15:49:09;2.50;99.90
2639;DHT22;1329;51.384;7.122;2024-01-07T15:51:36;2.50;99.90
2639;DHT22;1329;51.384;7.122;2024-01-07T15:54:05;2.50;99.90
2639;DHT22;1329;51.384;7.122;2024-01-07T15:56:35;2.50;99.90
2639;DHT22;1329;51.384;7.122;2024-01-07T15:59:05;2.50;99.90
2639;DHT22;1329;51.384;7.122;2024-01-07T16:01:33;2.50;99.90
2639;DHT22;1329;51.384;7.122;2024-01-07T16:04:01;2.60;99.90
2639;DHT22;1329;51.384;7.122;2024-01-07T16:06:28;2.60;99.90
2639;DHT22;1329;51.384;7.122;2024-01-07T16:08:56;2.60;99.90
2639;DHT22;1329;51.384;7.122;2024-01-07T16:11:25;2.60;99.90
2639;DHT22;1329;51.384;7.122;2024-01-07T16:13:52;2.60;99.90
2639;DHT22;1329;51.384;7.122;2024-01-07T16:16:20;2.60;99.90
2639;DHT22;1329;51.384;7.122;2024-01-07T16:18:47;2.60;99.90
2639;DHT22;1329;51.384;7.122;2024-01-07T16:21:15;2.70;99.90
2639;DHT22;1329;51.384;7.122;2024-01-07T16:23:48;2.60;99.90
2639;DHT22;1329;51.384;7.122;2024-01-07T16:26:15;2.60;99.90